This is the latest recevied weather packets stored in our database for station/object IR1ZYZ-3. If no packets are shown the sender has not sent any weather packets the latest 10 day(s).
| Time | Temp. | Humidity | Pressure | Rain* | Wind** | Luminosity | Snow |
|---|---|---|---|---|---|---|---|
| 1787999442 | 32.78° C | 42% | 1014.6 hPa | - | - | - | - |
| 1787998836 | 33.89° C | 40% | 1014.5 hPa | - | - | - | - |
| 1787998231 | 31.67° C | 44% | 1014.9 hPa | - | - | - | - |
| 1787997625 | 31.11° C | 42% | 1014.9 hPa | - | - | - | - |
| 1787997020 | 31.67° C | 47% | 1014.9 hPa | - | - | - | - |
| 1787996414 | 32.22° C | 49% | 1014.8 hPa | - | - | - | - |
| 1787995809 | 30.56° C | 49% | 1014.9 hPa | - | - | - | - |
| 1787995203 | 30.56° C | 54% | 1014.8 hPa | - | - | - | - |
| 1787994598 | 30° C | 54% | 1014.9 hPa | - | - | - | - |
| 1787993993 | 30.56° C | 52% | 1014.7 hPa | - | - | - | - |
| 1787993389 | 30.56° C | 50% | 1014.8 hPa | - | - | - | - |
| 1787992792 | 29.44° C | 56% | 1014.8 hPa | - | - | - | - |
| 1787990969 | 27.22° C | 63% | 1014.7 hPa | - | - | - | - |
| 1787987945 | 24.44° C | 82% | 1014.6 hPa | - | - | - | - |
| 1787987340 | 23.89° C | 81% | 1014.6 hPa | - | - | - | - |
| 1787986734 | 23.33° C | 81% | 1014.7 hPa | - | - | - | - |
| 1787986129 | 22.78° C | 77% | 1014.7 hPa | - | - | - | - |
| 1787985524 | 22.22° C | 78% | 1014.7 hPa | - | - | - | - |
| 1787984919 | 22.22° C | 69% | 1014.6 hPa | - | - | - | - |
| 1787984702 | 22.22° C | 68% | 1014.7 hPa | - | - | - | - |
| 1787984634 | 22.22° C | 65% | 1014.6 hPa | - | - | - | - |
| 1787984356 | 21.67° C | 68% | 1014.6 hPa | - | - | - | - |
| 1787984281 | 21.67° C | 69% | 1014.7 hPa | - | - | - | - |
| 1787984214 | 21.67° C | 64% | 1014.5 hPa | - | - | - | - |
| 1787984147 | 21.67° C | 65% | 1014.6 hPa | - | - | - | - |
* Rain since midnight (hover to see other rain measurements)
** Current wind speed in m/s (hover to see current wind gust speed)